sensor_id;sensor_type;location;lat;lon;timestamp;pressure;altitude;pressure_sealevel;temperature
48894;BMP280;34710;35.798;139.446;2022-07-22T00:00:10;99250.26;;;29.16
48894;BMP280;34710;35.798;139.446;2022-07-22T00:02:40;99248.91;;;29.39
48894;BMP280;34710;35.798;139.446;2022-07-22T00:05:09;99246.07;;;29.69
48894;BMP280;34710;35.798;139.446;2022-07-22T00:07:39;99246.09;;;29.26
48894;BMP280;34710;35.798;139.446;2022-07-22T00:10:10;99234.48;;;29.05
48894;BMP280;34710;35.798;139.446;2022-07-22T00:12:40;99236.55;;;28.95
48894;BMP280;34710;35.798;139.446;2022-07-22T00:15:10;99230.24;;;29.13
48894;BMP280;34710;35.798;139.446;2022-07-22T00:17:40;99223.25;;;29.07
48894;BMP280;34710;35.798;139.446;2022-07-22T00:20:10;99208.05;;;29.82
48894;BMP280;34710;35.798;139.446;2022-07-22T00:22:39;99210.13;;;30.03
48894;BMP280;34710;35.798;139.446;2022-07-22T00:25:09;99211.34;;;29.81
48894;BMP280;34710;35.798;139.446;2022-07-22T00:27:39;99211.32;;;29.59
48894;BMP280;34710;35.798;139.446;2022-07-22T00:30:08;99206.40;;;30.01
48894;BMP280;34710;35.798;139.446;2022-07-22T00:32:38;99195.39;;;29.84
48894;BMP280;34710;35.798;139.446;2022-07-22T00:35:08;99179.52;;;29.85
48894;BMP280;34710;35.798;139.446;2022-07-22T00:37:38;99176.82;;;30.14
48894;BMP280;34710;35.798;139.446;2022-07-22T00:40:08;99173.29;;;29.92
48894;BMP280;34710;35.798;139.446;2022-07-22T00:42:38;99173.01;;;30.35
48894;BMP280;34710;35.798;139.446;2022-07-22T00:45:08;99158.98;;;30.66
48894;BMP280;34710;35.798;139.446;2022-07-22T00:47:38;99152.28;;;30.65
48894;BMP280;34710;35.798;139.446;2022-07-22T00:50:08;99145.22;;;30.55
48894;BMP280;34710;35.798;139.446;2022-07-22T00:52:38;99138.17;;;30.61
48894;BMP280;34710;35.798;139.446;2022-07-22T00:55:08;99133.37;;;30.87
48894;BMP280;34710;35.798;139.446;2022-07-22T00:57:38;99132.32;;;30.44
48894;BMP280;34710;35.798;139.446;2022-07-22T01:00:12;99131.29;;;30.66
48894;BMP280;34710;35.798;139.446;2022-07-22T01:02:42;99129.55;;;30.27
48894;BMP280;34710;35.798;139.446;2022-07-22T01:05:12;99126.62;;;30.78
48894;BMP280;34710;35.798;139.446;2022-07-22T01:07:42;99129.14;;;30.36
48894;BMP280;34710;35.798;139.446;2022-07-22T01:10:12;99126.02;;;30.65
48894;BMP280;34710;35.798;139.446;2022-07-22T01:12:42;99124.04;;;30.62
48894;BMP280;34710;35.798;139.446;2022-07-22T01:15:12;99127.02;;;30.40
48894;BMP280;34710;35.798;139.446;2022-07-22T01:17:41;99123.15;;;29.47
48894;BMP280;34710;35.798;139.446;2022-07-22T01:20:11;99126.57;;;29.79
48894;BMP280;34710;35.798;139.446;2022-07-22T01:22:40;99127.82;;;29.89
48894;BMP280;34710;35.798;139.446;2022-07-22T01:25:10;99124.27;;;30.39
48894;BMP280;34710;35.798;139.446;2022-07-22T01:27:40;99123.04;;;30.44
48894;BMP280;34710;35.798;139.446;2022-07-22T01:30:10;99121.41;;;30.51
48894;BMP280;34710;35.798;139.446;2022-07-22T01:32:40;99118.91;;;31.02
48894;BMP280;34710;35.798;139.446;2022-07-22T01:35:09;99115.90;;;30.58
48894;BMP280;34710;35.798;139.446;2022-07-22T01:37:39;99116.18;;;30.69
48894;BMP280;34710;35.798;139.446;2022-07-22T01:40:09;99109.70;;;30.67
48894;BMP280;34710;35.798;139.446;2022-07-22T01:42:39;99100.73;;;30.55
48894;BMP280;34710;35.798;139.446;2022-07-22T01:45:09;99099.45;;;30.21
48894;BMP280;34710;35.798;139.446;2022-07-22T01:47:39;99095.96;;;30.65
48894;BMP280;34710;35.798;139.446;2022-07-22T01:50:11;99080.59;;;31.21
48894;BMP280;34710;35.798;139.446;2022-07-22T01:52:41;99075.33;;;31.61
48894;BMP280;34710;35.798;139.446;2022-07-22T01:55:10;99074.76;;;32.70
48894;BMP280;34710;35.798;139.446;2022-07-22T01:57:40;99068.37;;;33.04
48894;BMP280;34710;35.798;139.446;2022-07-22T02:00:11;99059.91;;;33.57
48894;BMP280;34710;35.798;139.446;2022-07-22T02:02:41;99068.16;;;32.81
48894;BMP280;34710;35.798;139.446;2022-07-22T02:05:11;99053.79;;;32.86
48894;BMP280;34710;35.798;139.446;2022-07-22T02:07:40;99052.13;;;32.53
48894;BMP280;34710;35.798;139.446;2022-07-22T02:10:11;99053.84;;;32.40
48894;BMP280;34710;35.798;139.446;2022-07-22T02:12:40;99043.81;;;31.62
48894;BMP280;34710;35.798;139.446;2022-07-22T02:15:10;99039.53;;;30.65
48894;BMP280;34710;35.798;139.446;2022-07-22T02:17:40;99043.56;;;30.40
48894;BMP280;34710;35.798;139.446;2022-07-22T02:20:10;99039.13;;;30.73
48894;BMP280;34710;35.798;139.446;2022-07-22T02:22:39;99037.03;;;29.96
48894;BMP280;34710;35.798;139.446;2022-07-22T02:25:09;99046.53;;;29.61
48894;BMP280;34710;35.798;139.446;2022-07-22T02:27:40;99048.96;;;29.61
48894;BMP280;34710;35.798;139.446;2022-07-22T02:30:11;99043.83;;;29.20
48894;BMP280;34710;35.798;139.446;2022-07-22T02:32:41;99046.26;;;29.25
48894;BMP280;34710;35.798;139.446;2022-07-22T02:35:10;99043.30;;;29.90
48894;BMP280;34710;35.798;139.446;2022-07-22T02:37:39;99043.51;;;31.44
48894;BMP280;34710;35.798;139.446;2022-07-22T02:40:09;99045.13;;;31.57
48894;BMP280;34710;35.798;139.446;2022-07-22T02:42:39;99052.33;;;31.35
48894;BMP280;34710;35.798;139.446;2022-07-22T02:45:09;99044.52;;;30.95
48894;BMP280;34710;35.798;139.446;2022-07-22T02:47:47;99039.90;;;31.28
48894;BMP280;34710;35.798;139.446;2022-07-22T02:50:16;99040.43;;;31.50
48894;BMP280;34710;35.798;139.446;2022-07-22T02:52:45;99036.91;;;31.02
48894;BMP280;34710;35.798;139.446;2022-07-22T02:55:14;99033.38;;;31.89
48894;BMP280;34710;35.798;139.446;2022-07-22T02:57:43;99024.93;;;31.41
48894;BMP280;34710;35.798;139.446;2022-07-22T03:00:14;99026.11;;;30.94
48894;BMP280;34710;35.798;139.446;2022-07-22T03:02:44;99020.66;;;31.28
48894;BMP280;34710;35.798;139.446;2022-07-22T03:05:14;99021.44;;;31.40
48894;BMP280;34710;35.798;139.446;2022-07-22T03:07:43;99013.93;;;31.18
48894;BMP280;34710;35.798;139.446;2022-07-22T03:10:13;99011.38;;;30.47
48894;BMP280;34710;35.798;139.446;2022-07-22T03:12:41;99008.28;;;31.28
48894;BMP280;34710;35.798;139.446;2022-07-22T03:15:11;99001.16;;;31.75
48894;BMP280;34710;35.798;139.446;2022-07-22T03:17:40;99003.84;;;31.58
48894;BMP280;34710;35.798;139.446;2022-07-22T03:20:11;98996.18;;;32.73
48894;BMP280;34710;35.798;139.446;2022-07-22T03:22:40;98989.71;;;33.06
48894;BMP280;34710;35.798;139.446;2022-07-22T03:25:09;98983.85;;;32.39
48894;BMP280;34710;35.798;139.446;2022-07-22T03:27:40;98984.50;;;31.78
48894;BMP280;34710;35.798;139.446;2022-07-22T03:30:10;98975.82;;;32.16
48894;BMP280;34710;35.798;139.446;2022-07-22T03:32:39;98980.45;;;31.41
48894;BMP280;34710;35.798;139.446;2022-07-22T03:35:09;98971.95;;;31.30
48894;BMP280;34710;35.798;139.446;2022-07-22T03:37:39;98970.18;;;32.37
48894;BMP280;34710;35.798;139.446;2022-07-22T03:40:09;98967.06;;;33.56
48894;BMP280;34710;35.798;139.446;2022-07-22T03:42:39;98963.70;;;34.26
48894;BMP280;34710;35.798;139.446;2022-07-22T03:45:10;98963.90;;;34.36
48894;BMP280;34710;35.798;139.446;2022-07-22T03:47:39;98960.16;;;32.55
48894;BMP280;34710;35.798;139.446;2022-07-22T03:50:09;98954.98;;;34.15
48894;BMP280;34710;35.798;139.446;2022-07-22T03:52:39;98952.06;;;34.16
48894;BMP280;34710;35.798;139.446;2022-07-22T03:55:09;98951.26;;;34.20
48894;BMP280;34710;35.798;139.446;2022-07-22T03:57:39;98950.35;;;33.88
48894;BMP280;34710;35.798;139.446;2022-07-22T04:00:09;98945.38;;;34.80
48894;BMP280;34710;35.798;139.446;2022-07-22T04:02:39;98947.29;;;35.70
48894;BMP280;34710;35.798;139.446;2022-07-22T04:05:08;98939.92;;;35.40
48894;BMP280;34710;35.798;139.446;2022-07-22T04:07:39;98937.95;;;34.89
48894;BMP280;34710;35.798;139.446;2022-07-22T04:10:09;98935.10;;;34.88
48894;BMP280;34710;35.798;139.446;2022-07-22T04:12:41;98940.34;;;36.37
48894;BMP280;34710;35.798;139.446;2022-07-22T04:15:10;98937.13;;;35.86
48894;BMP280;34710;35.798;139.446;2022-07-22T04:17:40;98935.24;;;35.74
48894;BMP280;34710;35.798;139.446;2022-07-22T04:20:10;98932.92;;;35.72
48894;BMP280;34710;35.798;139.446;2022-07-22T04:22:39;98928.11;;;36.55
48894;BMP280;34710;35.798;139.446;2022-07-22T04:25:09;98922.59;;;36.34
48894;BMP280;34710;35.798;139.446;2022-07-22T04:27:39;98920.63;;;35.87
48894;BMP280;34710;35.798;139.446;2022-07-22T04:30:09;98914.34;;;34.83
48894;BMP280;34710;35.798;139.446;2022-07-22T04:32:39;98910.59;;;34.54
48894;BMP280;34710;35.798;139.446;2022-07-22T04:35:08;98910.33;;;34.60
48894;BMP280;34710;35.798;139.446;2022-07-22T04:37:38;98910.16;;;34.16
48894;BMP280;34710;35.798;139.446;2022-07-22T04:40:08;98905.68;;;34.61
48894;BMP280;34710;35.798;139.446;2022-07-22T04:42:38;98901.69;;;35.74
48894;BMP280;34710;35.798;139.446;2022-07-22T04:45:08;98904.43;;;35.97
48894;BMP280;34710;35.798;139.446;2022-07-22T04:47:38;98901.82;;;36.20
48894;BMP280;34710;35.798;139.446;2022-07-22T04:50:08;98904.15;;;36.55
48894;BMP280;34710;35.798;139.446;2022-07-22T04:52:37;98900.64;;;36.75
48894;BMP280;34710;35.798;139.446;2022-07-22T04:55:08;98898.29;;;37.27
48894;BMP280;34710;35.798;139.446;2022-07-22T04:57:37;98902.01;;;36.84
48894;BMP280;34710;35.798;139.446;2022-07-22T05:00:07;98901.87;;;36.01
48894;BMP280;34710;35.798;139.446;2022-07-22T05:02:37;98896.63;;;36.17
48894;BMP280;34710;35.798;139.446;2022-07-22T05:05:07;98896.10;;;35.44
48894;BMP280;34710;35.798;139.446;2022-07-22T05:07:36;98888.47;;;36.21
48894;BMP280;34710;35.798;139.446;2022-07-22T05:10:07;98888.19;;;36.42
48894;BMP280;34710;35.798;139.446;2022-07-22T05:12:38;98891.04;;;35.92
48894;BMP280;34710;35.798;139.446;2022-07-22T05:15:08;98885.55;;;33.74
48894;BMP280;34710;35.798;139.446;2022-07-22T05:17:38;98887.54;;;33.90
48894;BMP280;34710;35.798;139.446;2022-07-22T05:20:08;98888.33;;;33.26
48894;BMP280;34710;35.798;139.446;2022-07-22T05:22:38;98887.80;;;34.06
48894;BMP280;34710;35.798;139.446;2022-07-22T05:25:08;98885.73;;;34.28
48894;BMP280;34710;35.798;139.446;2022-07-22T05:27:37;98881.38;;;34.73
48894;BMP280;34710;35.798;139.446;2022-07-22T05:30:08;98882.24;;;34.87
48894;BMP280;34710;35.798;139.446;2022-07-22T05:32:38;98884.41;;;36.06
48894;BMP280;34710;35.798;139.446;2022-07-22T05:35:08;98884.14;;;36.00
48894;BMP280;34710;35.798;139.446;2022-07-22T05:37:38;98877.16;;;36.13
48894;BMP280;34710;35.798;139.446;2022-07-22T05:40:09;98869.73;;;35.36
48894;BMP280;34710;35.798;139.446;2022-07-22T05:42:38;98868.55;;;34.38
48894;BMP280;34710;35.798;139.446;2022-07-22T05:45:08;98861.65;;;33.91
48894;BMP280;34710;35.798;139.446;2022-07-22T05:47:37;98861.34;;;34.55
48894;BMP280;34710;35.798;139.446;2022-07-22T05:50:07;98857.02;;;34.86
48894;BMP280;34710;35.798;139.446;2022-07-22T05:52:37;98858.00;;;35.28
48894;BMP280;34710;35.798;139.446;2022-07-22T05:55:07;98859.13;;;35.44
48894;BMP280;34710;35.798;139.446;2022-07-22T05:57:37;98849.52;;;35.45
48894;BMP280;34710;35.798;139.446;2022-07-22T06:00:08;98850.39;;;35.90
48894;BMP280;34710;35.798;139.446;2022-07-22T06:02:38;98835.96;;;36.57
48894;BMP280;34710;35.798;139.446;2022-07-22T06:05:07;98830.71;;;36.49
48894;BMP280;34710;35.798;139.446;2022-07-22T06:07:38;98826.01;;;35.89
48894;BMP280;34710;35.798;139.446;2022-07-22T06:10:09;98818.48;;;36.29
48894;BMP280;34710;35.798;139.446;2022-07-22T06:12:39;98822.60;;;36.65
48894;BMP280;34710;35.798;139.446;2022-07-22T06:15:09;98820.99;;;36.35
48894;BMP280;34710;35.798;139.446;2022-07-22T06:17:44;98821.16;;;36.77
48894;BMP280;34710;35.798;139.446;2022-07-22T06:20:14;98822.91;;;37.09
48894;BMP280;34710;35.798;139.446;2022-07-22T06:22:43;98819.88;;;36.67
48894;BMP280;34710;35.798;139.446;2022-07-22T06:25:12;98814.73;;;37.76
48894;BMP280;34710;35.798;139.446;2022-07-22T06:27:42;98813.37;;;37.93
48894;BMP280;34710;35.798;139.446;2022-07-22T06:30:12;98814.06;;;37.04
48894;BMP280;34710;35.798;139.446;2022-07-22T06:32:41;98812.36;;;35.35
48894;BMP280;34710;35.798;139.446;2022-07-22T06:35:10;98808.97;;;35.20
48894;BMP280;34710;35.798;139.446;2022-07-22T06:37:40;98810.18;;;35.83
48894;BMP280;34710;35.798;139.446;2022-07-22T06:40:11;98810.04;;;35.98
48894;BMP280;34710;35.798;139.446;2022-07-22T06:42:40;98804.95;;;35.67
48894;BMP280;34710;35.798;139.446;2022-07-22T06:45:10;98805.07;;;36.30
48894;BMP280;34710;35.798;139.446;2022-07-22T06:47:40;98805.17;;;35.55
48894;BMP280;34710;35.798;139.446;2022-07-22T06:50:10;98798.71;;;35.61
48894;BMP280;34710;35.798;139.446;2022-07-22T06:52:41;98801.54;;;35.74
48894;BMP280;34710;35.798;139.446;2022-07-22T06:55:11;98800.62;;;34.64
48894;BMP280;34710;35.798;139.446;2022-07-22T06:57:40;98805.64;;;35.63
48894;BMP280;34710;35.798;139.446;2022-07-22T07:00:10;98810.00;;;35.76
48894;BMP280;34710;35.798;139.446;2022-07-22T07:02:40;98812.02;;;34.84
48894;BMP280;34710;35.798;139.446;2022-07-22T07:05:10;98812.09;;;35.58
48894;BMP280;34710;35.798;139.446;2022-07-22T07:07:39;98813.76;;;35.76
48894;BMP280;34710;35.798;139.446;2022-07-22T07:10:09;98808.01;;;36.35
48894;BMP280;34710;35.798;139.446;2022-07-22T07:12:39;98808.08;;;36.47
48894;BMP280;34710;35.798;139.446;2022-07-22T07:15:08;98805.57;;;36.12
48894;BMP280;34710;35.798;139.446;2022-07-22T07:17:38;98799.97;;;36.04
48894;BMP280;34710;35.798;139.446;2022-07-22T07:20:09;98802.12;;;35.94
48894;BMP280;34710;35.798;139.446;2022-07-22T07:22:39;98801.13;;;35.95
48894;BMP280;34710;35.798;139.446;2022-07-22T07:25:09;98800.87;;;36.13
48894;BMP280;34710;35.798;139.446;2022-07-22T07:27:39;98799.96;;;35.05
48894;BMP280;34710;35.798;139.446;2022-07-22T07:30:09;98800.97;;;35.16
48894;BMP280;34710;35.798;139.446;2022-07-22T07:32:39;98801.37;;;35.55
48894;BMP280;34710;35.798;139.446;2022-07-22T07:35:09;98795.37;;;35.16
48894;BMP280;34710;35.798;139.446;2022-07-22T07:37:38;98792.54;;;35.10
48894;BMP280;34710;35.798;139.446;2022-07-22T07:40:08;98791.44;;;34.25
48894;BMP280;34710;35.798;139.446;2022-07-22T07:42:39;98788.53;;;33.45
48894;BMP280;34710;35.798;139.446;2022-07-22T07:45:09;98787.43;;;34.12
48894;BMP280;34710;35.798;139.446;2022-07-22T07:47:39;98785.87;;;34.62
48894;BMP280;34710;35.798;139.446;2022-07-22T07:50:09;98785.16;;;34.35
48894;BMP280;34710;35.798;139.446;2022-07-22T07:52:40;98785.67;;;34.00
48894;BMP280;34710;35.798;139.446;2022-07-22T07:55:10;98789.86;;;34.08
48894;BMP280;34710;35.798;139.446;2022-07-22T07:57:39;98788.75;;;33.89
48894;BMP280;34710;35.798;139.446;2022-07-22T08:00:10;98787.84;;;34.34
48894;BMP280;34710;35.798;139.446;2022-07-22T08:02:40;98790.86;;;34.92
48894;BMP280;34710;35.798;139.446;2022-07-22T08:05:10;98790.16;;;34.89
48894;BMP280;34710;35.798;139.446;2022-07-22T08:07:41;98789.06;;;34.73
48894;BMP280;34710;35.798;139.446;2022-07-22T08:10:10;98789.79;;;34.99
48894;BMP280;34710;35.798;139.446;2022-07-22T08:12:40;98792.54;;;34.83
48894;BMP280;34710;35.798;139.446;2022-07-22T08:15:10;98786.67;;;33.77
48894;BMP280;34710;35.798;139.446;2022-07-22T08:17:39;98788.72;;;33.23
48894;BMP280;34710;35.798;139.446;2022-07-22T08:20:10;98790.76;;;33.56
48894;BMP280;34710;35.798;139.446;2022-07-22T08:22:40;98785.86;;;33.47
48894;BMP280;34710;35.798;139.446;2022-07-22T08:25:09;98787.20;;;33.43
48894;BMP280;34710;35.798;139.446;2022-07-22T08:27:39;98791.09;;;33.63
48894;BMP280;34710;35.798;139.446;2022-07-22T08:30:08;98783.90;;;33.17
48894;BMP280;34710;35.798;139.446;2022-07-22T08:32:39;98783.01;;;33.84
48894;BMP280;34710;35.798;139.446;2022-07-22T08:35:09;98787.59;;;34.31
48894;BMP280;34710;35.798;139.446;2022-07-22T08:37:39;98789.81;;;33.80
48894;BMP280;34710;35.798;139.446;2022-07-22T08:40:09;98789.00;;;34.12
48894;BMP280;34710;35.798;139.446;2022-07-22T08:42:39;98790.99;;;34.48
48894;BMP280;34710;35.798;139.446;2022-07-22T08:45:10;98792.68;;;34.00
48894;BMP280;34710;35.798;139.446;2022-07-22T08:47:40;98799.26;;;32.78
48894;BMP280;34710;35.798;139.446;2022-07-22T08:50:12;98803.30;;;32.93
48894;BMP280;34710;35.798;139.446;2022-07-22T08:52:42;98806.26;;;32.97
48894;BMP280;34710;35.798;139.446;2022-07-22T08:55:11;98805.76;;;32.46
48894;BMP280;34710;35.798;139.446;2022-07-22T08:57:45;98810.96;;;33.38
48894;BMP280;34710;35.798;139.446;2022-07-22T09:00:19;98814.33;;;32.87
48894;BMP280;34710;35.798;139.446;2022-07-22T09:02:48;98811.60;;;33.58
48894;BMP280;34710;35.798;139.446;2022-07-22T09:05:18;98812.53;;;32.37
48894;BMP280;34710;35.798;139.446;2022-07-22T09:07:47;98817.89;;;33.08
48894;BMP280;34710;35.798;139.446;2022-07-22T09:10:18;98818.40;;;32.95
48894;BMP280;34710;35.798;139.446;2022-07-22T09:12:56;98820.97;;;32.80
48894;BMP280;34710;35.798;139.446;2022-07-22T09:15:29;98825.19;;;32.50
48894;BMP280;34710;35.798;139.446;2022-07-22T09:18:00;98825.62;;;32.11
48894;BMP280;34710;35.798;139.446;2022-07-22T09:20:30;98822.16;;;32.76
48894;BMP280;34710;35.798;139.446;2022-07-22T09:22:59;98830.26;;;32.21
48894;BMP280;34710;35.798;139.446;2022-07-22T09:25:31;98832.09;;;32.57
48894;BMP280;34710;35.798;139.446;2022-07-22T09:28:16;98831.29;;;32.06
48894;BMP280;34710;35.798;139.446;2022-07-22T09:30:51;98830.54;;;32.47
48894;BMP280;34710;35.798;139.446;2022-07-22T09:33:22;98833.47;;;32.87
48894;BMP280;34710;35.798;139.446;2022-07-22T09:36:00;98839.18;;;32.89
48894;BMP280;34710;35.798;139.446;2022-07-22T09:38:30;98840.76;;;32.54
48894;BMP280;34710;35.798;139.446;2022-07-22T09:40:59;98844.01;;;31.73
48894;BMP280;34710;35.798;139.446;2022-07-22T09:43:28;98844.29;;;32.52
48894;BMP280;34710;35.798;139.446;2022-07-22T09:45:58;98849.63;;;33.02
48894;BMP280;34710;35.798;139.446;2022-07-22T09:48:28;98850.69;;;32.45
48894;BMP280;34710;35.798;139.446;2022-07-22T09:50:57;98851.36;;;32.01
48894;BMP280;34710;35.798;139.446;2022-07-22T09:53:29;98850.84;;;32.03
48894;BMP280;34710;35.798;139.446;2022-07-22T09:56:00;98846.67;;;32.09
48894;BMP280;34710;35.798;139.446;2022-07-22T09:58:29;98845.66;;;31.77
48894;BMP280;34710;35.798;139.446;2022-07-22T10:01:02;98849.94;;;32.20
48894;BMP280;34710;35.798;139.446;2022-07-22T10:03:33;98843.21;;;32.60
48894;BMP280;34710;35.798;139.446;2022-07-22T10:06:06;98852.19;;;32.04
48894;BMP280;34710;35.798;139.446;2022-07-22T10:08:35;98844.25;;;31.98
48894;BMP280;34710;35.798;139.446;2022-07-22T10:11:06;98851.28;;;32.18
48894;BMP280;34710;35.798;139.446;2022-07-22T10:13:38;98849.98;;;31.58
48894;BMP280;34710;35.798;139.446;2022-07-22T10:16:09;98858.93;;;31.58
48894;BMP280;34710;35.798;139.446;2022-07-22T10:18:39;98857.53;;;30.94
48894;BMP280;34710;35.798;139.446;2022-07-22T10:21:13;98860.07;;;31.71
48894;BMP280;34710;35.798;139.446;2022-07-22T10:24:09;98863.11;;;31.04
48894;BMP280;34710;35.798;139.446;2022-07-22T10:26:50;98865.90;;;31.29
48894;BMP280;34710;35.798;139.446;2022-07-22T10:29:29;98868.65;;;31.11
48894;BMP280;34710;35.798;139.446;2022-07-22T10:32:31;98868.87;;;32.76
48894;BMP280;34710;35.798;139.446;2022-07-22T10:35:33;98869.89;;;32.42
48894;BMP280;34710;35.798;139.446;2022-07-22T10:38:06;98866.71;;;31.22
48894;BMP280;34710;35.798;139.446;2022-07-22T10:40:53;98866.90;;;32.28
48894;BMP280;34710;35.798;139.446;2022-07-22T10:43:24;98862.56;;;32.35
48894;BMP280;34710;35.798;139.446;2022-07-22T10:45:55;98860.52;;;32.44
48894;BMP280;34710;35.798;139.446;2022-07-22T10:48:45;98868.31;;;31.85
48894;BMP280;34710;35.798;139.446;2022-07-22T10:51:16;98870.98;;;32.42
48894;BMP280;34710;35.798;139.446;2022-07-22T10:53:52;98877.09;;;31.60
48894;BMP280;34710;35.798;139.446;2022-07-22T10:56:26;98872.85;;;32.12
48894;BMP280;34710;35.798;139.446;2022-07-22T10:58:58;98878.92;;;31.85
48894;BMP280;34710;35.798;139.446;2022-07-22T11:01:30;98875.15;;;31.39
48894;BMP280;34710;35.798;139.446;2022-07-22T11:04:18;98874.56;;;31.96
48894;BMP280;34710;35.798;139.446;2022-07-22T11:06:48;98877.24;;;31.90
48894;BMP280;34710;35.798;139.446;2022-07-22T11:09:20;98875.18;;;32.53
48894;BMP280;34710;35.798;139.446;2022-07-22T11:11:52;98882.27;;;31.01
48894;BMP280;34710;35.798;139.446;2022-07-22T11:14:24;98884.24;;;30.98
48894;BMP280;34710;35.798;139.446;2022-07-22T11:16:56;98883.82;;;31.71
48894;BMP280;34710;35.798;139.446;2022-07-22T11:19:27;98883.07;;;31.89
48894;BMP280;34710;35.798;139.446;2022-07-22T11:21:59;98885.57;;;30.86
48894;BMP280;34710;35.798;139.446;2022-07-22T11:24:29;98892.98;;;31.49
48894;BMP280;34710;35.798;139.446;2022-07-22T11:27:00;98900.32;;;31.61
48894;BMP280;34710;35.798;139.446;2022-07-22T11:29:31;98905.78;;;31.20
48894;BMP280;34710;35.798;139.446;2022-07-22T11:32:02;98908.52;;;31.59
48894;BMP280;34710;35.798;139.446;2022-07-22T11:34:32;98908.14;;;32.23
48894;BMP280;34710;35.798;139.446;2022-07-22T11:37:02;98913.09;;;31.90
48894;BMP280;34710;35.798;139.446;2022-07-22T11:39:32;98917.12;;;31.46
48894;BMP280;34710;35.798;139.446;2022-07-22T11:42:02;98916.94;;;32.38
48894;BMP280;34710;35.798;139.446;2022-07-22T11:44:36;98921.60;;;32.49
48894;BMP280;34710;35.798;139.446;2022-07-22T11:47:07;98926.00;;;32.62
48894;BMP280;34710;35.798;139.446;2022-07-22T11:49:38;98932.32;;;32.69
48894;BMP280;34710;35.798;139.446;2022-07-22T11:52:10;98936.68;;;30.38
48894;BMP280;34710;35.798;139.446;2022-07-22T11:54:41;98937.50;;;30.78
48894;BMP280;34710;35.798;139.446;2022-07-22T11:57:12;98938.57;;;30.88
48894;BMP280;34710;35.798;139.446;2022-07-22T11:59:41;98938.83;;;31.45
48894;BMP280;34710;35.798;139.446;2022-07-22T12:02:11;98941.21;;;31.31
48894;BMP280;34710;35.798;139.446;2022-07-22T12:04:42;98944.28;;;31.60
48894;BMP280;34710;35.798;139.446;2022-07-22T12:07:12;98944.95;;;31.93
48894;BMP280;34710;35.798;139.446;2022-07-22T12:09:42;98945.57;;;31.78
48894;BMP280;34710;35.798;139.446;2022-07-22T12:12:11;98944.06;;;32.40
48894;BMP280;34710;35.798;139.446;2022-07-22T12:14:46;98940.30;;;32.47
48894;BMP280;34710;35.798;139.446;2022-07-22T12:17:16;98941.61;;;31.70
48894;BMP280;34710;35.798;139.446;2022-07-22T12:19:46;98934.16;;;32.69
48894;BMP280;34710;35.798;139.446;2022-07-22T12:22:21;98935.93;;;32.46
48894;BMP280;34710;35.798;139.446;2022-07-22T12:25:00;98937.22;;;31.51
48894;BMP280;34710;35.798;139.446;2022-07-22T12:27:29;98939.56;;;31.81
48894;BMP280;34710;35.798;139.446;2022-07-22T12:29:58;98944.12;;;31.92
48894;BMP280;34710;35.798;139.446;2022-07-22T12:32:29;98949.08;;;31.72
48894;BMP280;34710;35.798;139.446;2022-07-22T12:35:00;98946.03;;;31.62
48894;BMP280;34710;35.798;139.446;2022-07-22T12:37:32;98943.22;;;32.01
48894;BMP280;34710;35.798;139.446;2022-07-22T12:40:06;98941.52;;;31.45
48894;BMP280;34710;35.798;139.446;2022-07-22T12:42:39;98942.93;;;31.56
48894;BMP280;34710;35.798;139.446;2022-07-22T12:45:11;98935.31;;;30.70
48894;BMP280;34710;35.798;139.446;2022-07-22T12:47:46;98933.30;;;31.19
48894;BMP280;34710;35.798;139.446;2022-07-22T12:50:19;98929.68;;;30.91
48894;BMP280;34710;35.798;139.446;2022-07-22T12:52:49;98926.83;;;30.39
48894;BMP280;34710;35.798;139.446;2022-07-22T12:55:18;98927.74;;;30.08
48894;BMP280;34710;35.798;139.446;2022-07-22T12:57:47;98931.91;;;30.75
48894;BMP280;34710;35.798;139.446;2022-07-22T13:00:21;98931.94;;;31.05
48894;BMP280;34710;35.798;139.446;2022-07-22T13:02:51;98927.97;;;31.00
48894;BMP280;34710;35.798;139.446;2022-07-22T13:05:21;98926.97;;;31.04
48894;BMP280;34710;35.798;139.446;2022-07-22T13:07:52;98928.34;;;31.36
48894;BMP280;34710;35.798;139.446;2022-07-22T13:10:23;98923.75;;;31.74
48894;BMP280;34710;35.798;139.446;2022-07-22T13:12:53;98922.24;;;32.00
48894;BMP280;34710;35.798;139.446;2022-07-22T13:15:23;98925.95;;;32.10
48894;BMP280;34710;35.798;139.446;2022-07-22T13:17:53;98928.67;;;31.90
48894;BMP280;34710;35.798;139.446;2022-07-22T13:20:22;98926.67;;;32.03
48894;BMP280;34710;35.798;139.446;2022-07-22T13:22:51;98924.30;;;31.05
48894;BMP280;34710;35.798;139.446;2022-07-22T13:25:20;98922.26;;;30.89
48894;BMP280;34710;35.798;139.446;2022-07-22T13:27:49;98926.80;;;30.53
48894;BMP280;34710;35.798;139.446;2022-07-22T13:30:18;98926.70;;;31.34
48894;BMP280;34710;35.798;139.446;2022-07-22T13:32:48;98924.88;;;31.13
48894;BMP280;34710;35.798;139.446;2022-07-22T13:35:17;98930.76;;;31.49
48894;BMP280;34710;35.798;139.446;2022-07-22T13:37:48;98931.95;;;31.76
48894;BMP280;34710;35.798;139.446;2022-07-22T13:40:17;98928.87;;;31.42
48894;BMP280;34710;35.798;139.446;2022-07-22T13:42:47;98929.28;;;30.20
48894;BMP280;34710;35.798;139.446;2022-07-22T13:45:16;98926.04;;;29.95
48894;BMP280;34710;35.798;139.446;2022-07-22T13:47:45;98929.42;;;29.47
48894;BMP280;34710;35.798;139.446;2022-07-22T13:50:15;98927.27;;;30.85
48894;BMP280;34710;35.798;139.446;2022-07-22T13:52:44;98931.17;;;31.01
48894;BMP280;34710;35.798;139.446;2022-07-22T13:55:13;98931.29;;;31.73
48894;BMP280;34710;35.798;139.446;2022-07-22T13:57:42;98933.44;;;30.72
48894;BMP280;34710;35.798;139.446;2022-07-22T14:00:12;98934.60;;;29.71
48894;BMP280;34710;35.798;139.446;2022-07-22T14:02:43;98934.35;;;30.34